Mustang Beach Information

FAA: RAS - ICAO: KRAS

Mustang Beach (Airport) Location

State Texas
County Nueces
City Port Aransas
Mustang Beach (Airport) is 2 miles southwest of Port Aransas, TX.
Latitude 27-48-42.6000N
Longitude 097-05-19.5000W
Elevation 5ft

Mustang Beach METARs

METAR KRAS 191235Z AUTO 17014G18KT 10SM CLR 26/23 A2983 RMK AO2 T02580227
Altimeter 29.83"
Temperature 25.8°C (78.4°F)
Wind 170° at 14KT with gusts to 18KT
Clouds Skies are clear.
Visibility 10.0mi
Time observed: 2022-05-19T12:35:00Z

Mustang Beach (Airport) Details

Status Operational
Activation December 1965
Ownership Public
Usage Public
Chart BROWNSVILLE
ATC on-site No
Beacon schedule sunset-sunrise
Beacon color clear green

Mustang Beach (Airport) Contacts

Owner CITY OF PORT ARANSAS
Owner address 710 W. AVE A, PORT ARANSAS, TX 78373-4128
Owner phone 361-749-4111
Manager CLARENCE E BLEDSOE
Manager address 2001 KENT DRIVE, ARLINGTON, TX 76010
Manager phone 817-461-4065

Mustang Beach Radio Frequencies

Mustang Beach (Airport) Radio Frequencies

UNICOM N/A
Common traffic advisory frequency (CTAF) 122.9